1927 NOT_NAMED (1927218N17129)


IBTrACS version v04r00. Visit IBTrACS website for data access.
Please direct all questions to the IBTrACS Q and A forum

Storm track - Intensity - Wind Radii - Intensity Data - Source Data - All data

Summary Information

Storm ID 1927218N17129
Start Aug 5 22Z
End Aug 8 22Z
ATCF IDs
Track status Best track data.

Storm track plot

Map of storm track

Intensity plots

No Intensity information for this storm


Radial wind information

No radial wind information for this storm


Position and Intensity Table

BASIN ISO_TIME_________ NATURE LAT LON
degrees north degrees east
WP 1927-08-05 22:00:00 NR 17.40 129.00
WP 1927-08-06 00:00:00 NR 17.58 128.60
WP 03:00:00 NR 17.86 127.98
WP 06:00:00 NR 18.16 127.33
WP 09:00:00 NR 18.48 126.64
WP 10:00:00 NR 18.60 126.40
WP 12:00:00 NR 18.84 125.90
WP 15:00:00 NR 19.24 125.16
WP 18:00:00 NR 19.68 124.52
WP 21:00:00 NR 20.14 124.08
WP 22:00:00 NR 20.30 124.00
WP 1927-08-07 00:00:00 NR 20.63 123.96
WP 03:00:00 NR 21.16 124.13
WP 06:00:00 NR 21.70 124.49
WP 09:00:00 NR 22.23 124.94
WP 10:00:00 NR 22.40 125.10
WP 12:00:00 NR 22.73 125.43
WP 15:00:00 NR 23.20 125.96
WP 18:00:00 NR 23.64 126.46
WP 21:00:00 NR 24.06 126.83
WP 22:00:00 NR 24.20 126.90
WP 1927-08-08 00:00:00 NR 24.48 126.94
WP 03:00:00 NR 24.89 126.84
WP 06:00:00 NR 25.26 126.58
WP 09:00:00 NR 25.60 126.23
WP 10:00:00 NR 25.70 126.10
WP 12:00:00 NR 25.89 125.83
WP 15:00:00 NR 26.13 125.42
WP 18:00:00 NR 26.34 124.99
WP 21:00:00 NR 26.54 124.55
WP 22:00:00 NR 26.60 124.40

Source Information

Agency Information
USA
TOKYO
CMA
HKO
NEWDELHI
REUNION
BOM
NADI
WELLINGTON
DS824
TD9636 cons_worldwide_trop_cyclone_18710101-19891231-003:Line=7806
TD9635
NEUMANN
MLC

All available IBTrACS Data

SEASON BASIN SUBBASIN ISO_TIME_________ NATURE LAT LON DIST2LAND LANDFALL IFLAG USA SSHS TD9636 LAT TD9636 LON TD9636 STAGE STORM SPEED STORM DIR
Year degrees north degrees east km km 1 degrees north degrees east kts degrees
1927 WP MM 1927-08-05 22:00:00 NR 17.40 129.00 629 611 __________O___ -1 17.40 129.00 7 13 295
1927 WP MM 1927-08-06 00:00:00 NR 17.58 128.60 611 580 __________P___ -1 17.58 128.60 7 13 295
1927 WP MM 03:00:00 NR 17.86 127.98 589 526 __________P___ -1 17.86 127.98 7 13 296
1927 WP MM 06:00:00 NR 18.16 127.33 526 453 __________P___ -1 18.16 127.33 7 14 296
1927 WP MM 09:00:00 NR 18.48 126.64 453 432 __________P___ -1 18.48 126.64 7 15 296
1927 WP MM 10:00:00 NR 18.60 126.40 432 382 __________O___ -1 18.60 126.40 7 16 297
1927 WP MM 12:00:00 NR 18.84 125.90 382 318 __________P___ -1 18.84 125.90 7 16 299
1927 WP MM 15:00:00 NR 19.24 125.16 318 273 __________P___ -1 19.24 125.16 7 16 302
1927 WP MM 18:00:00 NR 19.68 124.52 273 260 __________P___ -1 19.68 124.52 7 14 312
1927 WP MM 21:00:00 NR 20.14 124.08 268 269 __________P___ -1 20.14 124.08 7 12 322
1927 WP MM 22:00:00 NR 20.30 124.00 277 277 __________O___ -1 20.30 124.00 3 10 347
1927 WP MM 1927-08-07 00:00:00 NR 20.63 123.96 303 312 __________P___ -1 20.63 123.96 3 11 8
1927 WP MM 03:00:00 NR 21.16 124.13 339 339 __________P___ -1 21.16 124.13 3 12 25
1927 WP MM 06:00:00 NR 21.70 124.49 354 350 __________P___ -1 21.70 124.49 3 13 35
1927 WP MM 09:00:00 NR 22.23 124.94 372 379 __________P___ -1 22.23 124.94 3 14 39
1927 WP MM 10:00:00 NR 22.40 125.10 387 387 __________O___ -1 22.40 125.10 4 13 42
1927 WP MM 12:00:00 NR 22.73 125.43 409 412 __________P___ -1 22.73 125.43 4 14 45
1927 WP MM 15:00:00 NR 23.20 125.96 441 441 __________P___ -1 23.20 125.96 4 13 46
1927 WP MM 18:00:00 NR 23.64 126.46 477 475 __________P___ -1 23.64 126.46 4 12 42
1927 WP MM 21:00:00 NR 24.06 126.83 495 495 __________P___ -1 24.06 126.83 4 10 35
1927 WP MM 22:00:00 NR 24.20 126.90 503 497 __________O___ -1 24.20 126.90 4 9 14
1927 WP MM 1927-08-08 00:00:00 NR 24.48 126.94 497 483 __________P___ -1 24.48 126.94 4 8 355
1927 WP MM 03:00:00 NR 24.89 126.84 483 463 __________P___ -1 24.89 126.84 4 9 337
1927 WP MM 06:00:00 NR 25.26 126.58 463 427 __________P___ -1 25.26 126.58 4 9 322
1927 WP MM 09:00:00 NR 25.60 126.23 427 419 __________P___ -1 25.60 126.23 4 9 315
1927 WP MM 10:00:00 NR 25.70 126.10 419 394 __________O___ -1 25.70 126.10 4 9 309
1927 WP MM 12:00:00 NR 25.89 125.83 394 362 __________P___ -1 25.89 125.83 4 9 305
1927 WP MM 15:00:00 NR 26.13 125.42 362 333 __________P___ -1 26.13 125.42 4 9 301
1927 WP MM 18:00:00 NR 26.34 124.99 333 301 __________P___ -1 26.34 124.99 4 9 298
1927 WP MM 21:00:00 NR 26.54 124.55 301 299 __________P___ -1 26.54 124.55 4 9 296
1927 WP MM 22:00:00 NR 26.60 124.40 299 __________O___ -1 26.60 124.40 4 9 295